N930DX SCQP-SCEL
Flight info
| Callsign | N930DX |
|---|---|
| Flight time | N/A |
| Altitude | 28000 |
| Route | N0315F280 KETI3C KETIR UQ802 EROLO EROL2D |
| Aircraft | TBM9/L-SDGRY/LB1 |
Departure
| Time | N/A |
|---|---|
| Airport | La Araucanía International Airport (SCQP) |
Arrival
| Time | 2026-05-03 21:16 |
|---|---|
| Airport | Comodoro Arturo Merino Benítez International Airport (SCEL) |
| Time | Latitude | Longitude | Altitude | Speed | Heading |
|---|---|---|---|---|---|
| 2026-05-03 20:15 | -38.06561 | -72.40579 | 25199 ft | 281 kts | 357° |
| 2026-05-03 20:15 | -38.04660 | -72.40096 | 25503 ft | 280 kts | 355° |
| 2026-05-03 20:15 | -38.02728 | -72.39618 | 25818 ft | 283 kts | 355° |
| 2026-05-03 20:15 | -38.00784 | -72.39112 | 26091 ft | 285 kts | 356° |
| 2026-05-03 20:16 | -37.98856 | -72.38586 | 26384 ft | 288 kts | 356° |
| 2026-05-03 20:16 | -37.96877 | -72.38023 | 26687 ft | 290 kts | 356° |
| 2026-05-03 20:16 | -37.94915 | -72.37441 | 26987 ft | 292 kts | 357° |
| 2026-05-03 20:16 | -37.92915 | -72.36822 | 27281 ft | 295 kts | 358° |
| 2026-05-03 20:17 | -37.90924 | -72.36184 | 27569 ft | 298 kts | 358° |
| 2026-05-03 20:17 | -37.88932 | -72.35521 | 27856 ft | 300 kts | 359° |
| 2026-05-03 20:17 | -37.86895 | -72.34821 | 28089 ft | 305 kts | 359° |
| 2026-05-03 20:18 | -37.82696 | -72.33960 | 28090 ft | 311 kts | 351° |
| 2026-05-03 20:18 | -37.80540 | -72.33489 | 28104 ft | 324 kts | 357° |
| 2026-05-03 20:18 | -37.78310 | -72.32785 | 28105 ft | 332 kts | 360° |
| 2026-05-03 20:19 | -37.73835 | -72.31480 | 28102 ft | 332 kts | 357° |
| 2026-05-03 20:19 | -37.69293 | -72.30240 | 28091 ft | 336 kts | 358° |
| 2026-05-03 20:20 | -37.64697 | -72.28938 | 28082 ft | 337 kts | 358° |
| 2026-05-03 20:20 | -37.60135 | -72.27545 | 28074 ft | 339 kts | 359° |
| 2026-05-03 20:21 | -37.55530 | -72.26146 | 28077 ft | 339 kts | 359° |
| 2026-05-03 20:21 | -37.50938 | -72.24740 | 28072 ft | 339 kts | 359° |
| 2026-05-03 20:22 | -37.46355 | -72.23346 | 28080 ft | 340 kts | 360° |
| 2026-05-03 20:22 | -37.41754 | -72.21944 | 28081 ft | 340 kts | 360° |
| 2026-05-03 20:23 | -37.37173 | -72.20551 | 28079 ft | 340 kts | 360° |
| 2026-05-03 20:23 | -37.32575 | -72.19155 | 28076 ft | 340 kts | 360° |
| 2026-05-03 20:24 | -37.27995 | -72.17766 | 28077 ft | 339 kts | 360° |
| 2026-05-03 20:24 | -37.23412 | -72.16377 | 28076 ft | 339 kts | 360° |
| 2026-05-03 20:25 | -37.18829 | -72.14991 | 28075 ft | 339 kts | 360° |
| 2026-05-03 20:25 | -37.14236 | -72.13603 | 28077 ft | 339 kts | 360° |
| 2026-05-03 20:26 | -37.09657 | -72.12222 | 28079 ft | 339 kts | 360° |
| 2026-05-03 20:26 | -37.05072 | -72.10839 | 28079 ft | 339 kts | 360° |
| 2026-05-03 20:27 | -37.00476 | -72.09456 | 28080 ft | 339 kts | 0° |
| 2026-05-03 20:27 | -36.96669 | -72.08312 | 28081 ft | 339 kts | 0° |
| 2026-05-03 20:28 | -36.91341 | -72.06711 | 28082 ft | 338 kts | 0° |
| 2026-05-03 20:28 | -36.87509 | -72.05563 | 28082 ft | 338 kts | 0° |
| 2026-05-03 20:29 | -36.82926 | -72.04189 | 28085 ft | 338 kts | 0° |
| 2026-05-03 20:29 | -36.78350 | -72.02820 | 28082 ft | 338 kts | 0° |
| 2026-05-03 20:30 | -36.73765 | -72.01450 | 28086 ft | 338 kts | 0° |
| 2026-05-03 20:30 | -36.69195 | -72.00085 | 28084 ft | 338 kts | 0° |
| 2026-05-03 20:31 | -36.64626 | -71.98723 | 28082 ft | 338 kts | 0° |
| 2026-05-03 20:31 | -36.60057 | -71.97362 | 28083 ft | 338 kts | 0° |
| 2026-05-03 20:32 | -36.55462 | -71.95996 | 28086 ft | 338 kts | 0° |
| 2026-05-03 20:32 | -36.50899 | -71.94640 | 28082 ft | 337 kts | 0° |
| 2026-05-03 20:33 | -36.46328 | -71.93284 | 28083 ft | 338 kts | 0° |
| 2026-05-03 20:33 | -36.41773 | -71.91934 | 28089 ft | 338 kts | 0° |
| 2026-05-03 20:34 | -36.37195 | -71.90580 | 28091 ft | 337 kts | 0° |
| 2026-05-03 20:34 | -36.32632 | -71.89231 | 28088 ft | 337 kts | 0° |
| 2026-05-03 20:35 | -36.28062 | -71.87882 | 28085 ft | 337 kts | 0° |
| 2026-05-03 20:35 | -36.23499 | -71.86536 | 28083 ft | 337 kts | 0° |
| 2026-05-03 20:36 | -36.18966 | -71.85201 | 28082 ft | 337 kts | 0° |
| 2026-05-03 20:36 | -36.14402 | -71.83859 | 28082 ft | 337 kts | 0° |
| 2026-05-03 20:37 | -36.09836 | -71.82516 | 28082 ft | 337 kts | 0° |
| 2026-05-03 20:37 | -36.05266 | -71.81175 | 28085 ft | 337 kts | 1° |
| 2026-05-03 20:38 | -36.00712 | -71.79841 | 28084 ft | 337 kts | 1° |
| 2026-05-03 20:38 | -35.96132 | -71.78499 | 28082 ft | 337 kts | 1° |
| 2026-05-03 20:39 | -35.91579 | -71.77169 | 28083 ft | 337 kts | 1° |
| 2026-05-03 20:39 | -35.87010 | -71.75833 | 28082 ft | 337 kts | 1° |
| 2026-05-03 20:40 | -35.82474 | -71.74510 | 28083 ft | 337 kts | 1° |
| 2026-05-03 20:40 | -35.77915 | -71.73181 | 28082 ft | 336 kts | 1° |
| 2026-05-03 20:41 | -35.73373 | -71.71859 | 28083 ft | 336 kts | 1° |
| 2026-05-03 20:41 | -35.68804 | -71.70531 | 28079 ft | 336 kts | 1° |
| 2026-05-03 20:42 | -35.64248 | -71.69207 | 28082 ft | 336 kts | 1° |
| 2026-05-03 20:42 | -35.59713 | -71.67893 | 28081 ft | 336 kts | 1° |
| 2026-05-03 20:43 | -35.55151 | -71.66571 | 28079 ft | 336 kts | 1° |
| 2026-05-03 20:43 | -35.50619 | -71.65260 | 28080 ft | 336 kts | 1° |
| 2026-05-03 20:44 | -35.46049 | -71.63939 | 28082 ft | 336 kts | 1° |
| 2026-05-03 20:44 | -35.41507 | -71.62626 | 28081 ft | 336 kts | 1° |
| 2026-05-03 20:45 | -35.36973 | -71.61317 | 28079 ft | 336 kts | 1° |
| 2026-05-03 20:45 | -35.32433 | -71.60008 | 28079 ft | 336 kts | 1° |
| 2026-05-03 20:46 | -35.27889 | -71.58699 | 28085 ft | 336 kts | 1° |
| 2026-05-03 20:46 | -35.23335 | -71.57391 | 28084 ft | 336 kts | 0° |
| 2026-05-03 20:47 | -35.18760 | -71.56076 | 28089 ft | 336 kts | 1° |
| 2026-05-03 20:47 | -35.14216 | -71.54771 | 28077 ft | 336 kts | 1° |
| 2026-05-03 20:48 | -35.09650 | -71.53461 | 28081 ft | 337 kts | 1° |
| 2026-05-03 20:48 | -35.05116 | -71.52162 | 28083 ft | 335 kts | 1° |
| 2026-05-03 20:49 | -35.00572 | -71.50866 | 28083 ft | 335 kts | 0° |
| 2026-05-03 20:49 | -34.96008 | -71.49560 | 28076 ft | 336 kts | 1° |
| 2026-05-03 20:50 | -34.91454 | -71.48261 | 28084 ft | 336 kts | 1° |
| 2026-05-03 20:50 | -34.86918 | -71.46969 | 28074 ft | 337 kts | 1° |
| 2026-05-03 20:51 | -34.82345 | -71.45664 | 28076 ft | 336 kts | 0° |
| 2026-05-03 20:51 | -34.77801 | -71.44376 | 28072 ft | 336 kts | 1° |
| 2026-05-03 20:52 | -34.73266 | -71.43085 | 28082 ft | 334 kts | 0° |
| 2026-05-03 20:52 | -34.68746 | -71.41802 | 28080 ft | 334 kts | 0° |
| 2026-05-03 20:53 | -34.64230 | -71.40358 | 28087 ft | 344 kts | 9° |
| 2026-05-03 20:53 | -34.59781 | -71.38144 | 28084 ft | 346 kts | 10° |
| 2026-05-03 20:54 | -34.55277 | -71.35939 | 28078 ft | 348 kts | 11° |
| 2026-05-03 20:54 | -34.48547 | -71.32621 | 28063 ft | 348 kts | 10° |
| 2026-05-03 20:55 | -34.44083 | -71.30427 | 28071 ft | 348 kts | 10° |
| 2026-05-03 20:55 | -34.39590 | -71.28220 | 28068 ft | 349 kts | 10° |
| 2026-05-03 20:56 | -34.35138 | -71.26042 | 28077 ft | 344 kts | 10° |
| 2026-05-03 20:56 | -34.30677 | -71.23855 | 28074 ft | 347 kts | 11° |
| 2026-05-03 20:57 | -34.26194 | -71.21662 | 28067 ft | 348 kts | 10° |
| 2026-05-03 20:57 | -34.21714 | -71.19470 | 28071 ft | 348 kts | 10° |
| 2026-05-03 20:58 | -34.17197 | -71.17268 | 28064 ft | 349 kts | 11° |
| 2026-05-03 20:58 | -34.12724 | -71.15088 | 28058 ft | 349 kts | 10° |
| 2026-05-03 20:59 | -34.08207 | -71.12888 | 28054 ft | 350 kts | 11° |
| 2026-05-03 20:59 | -34.03672 | -71.10687 | 27663 ft | 358 kts | 11° |
| 2026-05-03 21:00 | -34.01373 | -71.09566 | 27232 ft | 360 kts | 11° |
| 2026-05-03 21:00 | -34.00590 | -71.09181 | 27081 ft | 359 kts | 11° |
| 2026-05-03 21:00 | -33.96725 | -71.07291 | 26271 ft | 362 kts | 13° |
| 2026-05-03 21:00 | -33.94469 | -71.05842 | 25794 ft | 365 kts | 18° |
| 2026-05-03 21:01 | -33.92145 | -71.04640 | 25300 ft | 358 kts | 10° |
| 2026-05-03 21:01 | -33.89824 | -71.03624 | 24837 ft | 359 kts | 10° |
| 2026-05-03 21:01 | -33.87486 | -71.02460 | 24388 ft | 363 kts | 15° |
| 2026-05-03 21:01 | -33.85223 | -71.01125 | 23921 ft | 364 kts | 18° |
| 2026-05-03 21:02 | -33.82962 | -70.99814 | 23456 ft | 363 kts | 15° |
| 2026-05-03 21:02 | -33.80644 | -70.98572 | 22862 ft | 362 kts | 14° |
| 2026-05-03 21:02 | -33.78367 | -70.97355 | 22274 ft | 357 kts | 15° |
| 2026-05-03 21:02 | -33.76099 | -70.96105 | 21725 ft | 358 kts | 17° |
| 2026-05-03 21:03 | -33.73820 | -70.94848 | 21179 ft | 361 kts | 17° |
| 2026-05-03 21:03 | -33.71554 | -70.93607 | 20639 ft | 361 kts | 17° |
| 2026-05-03 21:03 | -33.69255 | -70.92350 | 20103 ft | 359 kts | 17° |
| 2026-05-03 21:03 | -33.67007 | -70.91125 | 19585 ft | 357 kts | 18° |
| 2026-05-03 21:04 | -33.64743 | -70.89890 | 19068 ft | 355 kts | 18° |
| 2026-05-03 21:04 | -33.62521 | -70.88676 | 18525 ft | 350 kts | 18° |
| 2026-05-03 21:04 | -33.60311 | -70.87468 | 17918 ft | 346 kts | 19° |
| 2026-05-03 21:04 | -33.58150 | -70.86292 | 17295 ft | 340 kts | 19° |
| 2026-05-03 21:05 | -33.56001 | -70.85120 | 16670 ft | 334 kts | 19° |
| 2026-05-03 21:05 | -33.53910 | -70.83982 | 16080 ft | 329 kts | 19° |
| 2026-05-03 21:05 | -33.51864 | -70.82867 | 15495 ft | 322 kts | 20° |
| 2026-05-03 21:05 | -33.49838 | -70.81764 | 14914 ft | 315 kts | 20° |
| 2026-05-03 21:06 | -33.47827 | -70.80802 | 14329 ft | 304 kts | 12° |
| 2026-05-03 21:06 | -33.45799 | -70.80356 | 13747 ft | 295 kts | 2° |
| 2026-05-03 21:06 | -33.43760 | -70.80363 | 13101 ft | 289 kts | 352° |
| 2026-05-03 21:06 | -33.41814 | -70.80803 | 12478 ft | 284 kts | 343° |
| 2026-05-03 21:07 | -33.39969 | -70.81656 | 11862 ft | 281 kts | 333° |
| 2026-05-03 21:07 | -33.38310 | -70.82861 | 11264 ft | 280 kts | 325° |
| 2026-05-03 21:07 | -33.36710 | -70.84185 | 10690 ft | 278 kts | 326° |
| 2026-05-03 21:07 | -33.35108 | -70.85459 | 10119 ft | 272 kts | 327° |
| 2026-05-03 21:08 | -33.33582 | -70.86682 | 9471 ft | 262 kts | 326° |
| 2026-05-03 21:08 | -33.32089 | -70.87906 | 8883 ft | 257 kts | 326° |
| 2026-05-03 21:08 | -33.30628 | -70.89090 | 8341 ft | 254 kts | 327° |
| 2026-05-03 21:08 | -33.29152 | -70.90266 | 7787 ft | 252 kts | 327° |
| 2026-05-03 21:09 | -33.27694 | -70.91438 | 7258 ft | 251 kts | 327° |
| 2026-05-03 21:09 | -33.26254 | -70.92581 | 6741 ft | 251 kts | 330° |
| 2026-05-03 21:09 | -33.24601 | -70.93232 | 6224 ft | 251 kts | 354° |
| 2026-05-03 21:09 | -33.22899 | -70.93076 | 5950 ft | 245 kts | 15° |
| 2026-05-03 21:10 | -33.21382 | -70.92189 | 5708 ft | 240 kts | 37° |
| 2026-05-03 21:10 | -33.20268 | -70.90745 | 5521 ft | 237 kts | 58° |
| 2026-05-03 21:10 | -33.19673 | -70.88947 | 5358 ft | 234 kts | 79° |
| 2026-05-03 21:10 | -33.19656 | -70.87000 | 5192 ft | 233 kts | 101° |
| 2026-05-03 21:11 | -33.20210 | -70.85191 | 4984 ft | 232 kts | 122° |
| 2026-05-03 21:11 | -33.21138 | -70.83681 | 4721 ft | 224 kts | 133° |
| 2026-05-03 21:11 | -33.22303 | -70.82481 | 4434 ft | 216 kts | 147° |
| 2026-05-03 21:11 | -33.23593 | -70.81665 | 4160 ft | 207 kts | 160° |
| 2026-05-03 21:12 | -33.24971 | -70.81213 | 3896 ft | 202 kts | 173° |
| 2026-05-03 21:12 | -33.26270 | -70.81080 | 3644 ft | 175 kts | 178° |
| 2026-05-03 21:12 | -33.27415 | -70.80972 | 3435 ft | 159 kts | 178° |
| 2026-05-03 21:12 | -33.28125 | -70.80906 | 3301 ft | 149 kts | 177° |
| 2026-05-03 21:13 | -33.29116 | -70.80761 | 3110 ft | 137 kts | 174° |
| 2026-05-03 21:13 | -33.30349 | -70.80651 | 2913 ft | 124 kts | 182° |
| 2026-05-03 21:13 | -33.30875 | -70.80661 | 2781 ft | 106 kts | 182° |
| 2026-05-03 21:13 | -33.31579 | -70.80650 | 2648 ft | 97 kts | 178° |
| 2026-05-03 21:14 | -33.32245 | -70.80621 | 2524 ft | 94 kts | 180° |
| 2026-05-03 21:14 | -33.32887 | -70.80586 | 2386 ft | 90 kts | 178° |
| 2026-05-03 21:14 | -33.33514 | -70.80551 | 2302 ft | 93 kts | 178° |
| 2026-05-03 21:14 | -33.34180 | -70.80515 | 2192 ft | 97 kts | 176° |
| 2026-05-03 21:15 | -33.34819 | -70.80493 | 2133 ft | 87 kts | 179° |
| 2026-05-03 21:15 | -33.35423 | -70.80453 | 2008 ft | 89 kts | 180° |
| 2026-05-03 21:15 | -33.36059 | -70.80427 | 1861 ft | 92 kts | 177° |
| 2026-05-03 21:15 | -33.36687 | -70.80398 | 1738 ft | 92 kts | 176° |
| 2026-05-03 21:16 | -33.37326 | -70.80367 | 1599 ft | 91 kts | 176° |
| 2026-05-03 21:16 | -33.37874 | -70.80337 | 1568 ft | 63 kts | 177° |
| 2026-05-03 21:16 | -33.38258 | -70.80317 | 1568 ft | 50 kts | 177° |
| 2026-05-03 21:16 | -33.38605 | -70.80298 | 1569 ft | 49 kts | 178° |
| 2026-05-03 21:17 | -33.38930 | -70.80280 | 1569 ft | 43 kts | 178° |
| 2026-05-03 21:17 | -33.39141 | -70.80268 | 1568 ft | 27 kts | 175° |
| 2026-05-03 21:17 | -33.39321 | -70.80207 | 1567 ft | 27 kts | 151° |
| 2026-05-03 21:17 | -33.39438 | -70.80117 | 1562 ft | 20 kts | 148° |
| 2026-05-03 21:18 | -33.39520 | -70.80023 | 1560 ft | 12 kts | 120° |
| 2026-05-03 21:18 | -33.39530 | -70.79926 | 1560 ft | 12 kts | 93° |
| 2026-05-03 21:18 | -33.39526 | -70.79814 | 1560 ft | 16 kts | 87° |
| 2026-05-03 21:18 | -33.39520 | -70.79670 | 1559 ft | 18 kts | 86° |
| 2026-05-03 21:19 | -33.39515 | -70.79517 | 1559 ft | 20 kts | 86° |
| 2026-05-03 21:19 | -33.39508 | -70.79363 | 1559 ft | 18 kts | 88° |
| 2026-05-03 21:19 | -33.39502 | -70.79212 | 1559 ft | 18 kts | 88° |
| 2026-05-03 21:19 | -33.39457 | -70.79135 | 1559 ft | 12 kts | 357° |
| 2026-05-03 21:20 | -33.39360 | -70.79143 | 1559 ft | 16 kts | 356° |
| 2026-05-03 21:20 | -33.39250 | -70.79143 | 1559 ft | 13 kts | 359° |
| 2026-05-03 21:20 | -33.39212 | -70.79179 | 1559 ft | 8 kts | 257° |
| 2026-05-03 21:20 | -33.39224 | -70.79205 | 1559 ft | 0 kts | 356° |
| 2026-05-03 21:21 | -33.39223 | -70.79205 | 1559 ft | 0 kts | 359° |